C6040 KSAN-KSAN
Flight info
| Callsign | C6040 |
|---|---|
| Flight time | 0h 0m |
| Altitude | 1500 |
| Route | S |
| Aircraft | H60/L-VGD/C |
Departure
| Time | 2026-04-24 23:30 |
|---|---|
| Airport | San Diego International Airport (KSAN) |
Arrival
| Time | 2026-04-24 23:31 |
|---|---|
| Airport | San Diego International Airport (KSAN) |
| Time | Latitude | Longitude | Altitude | Speed | Heading |
|---|---|---|---|---|---|
| 2026-04-24 23:10 | 32.72625 | -117.18144 | 12 ft | 0 kts | 287° |
| 2026-04-24 23:13 | 32.72624 | -117.18144 | 13 ft | 0 kts | 284° |
| 2026-04-24 23:13 | 32.72626 | -117.18147 | 31 ft | 0 kts | 283° |
| 2026-04-24 23:14 | 32.72625 | -117.18147 | 33 ft | 1 kts | 283° |
| 2026-04-24 23:14 | 32.72625 | -117.18148 | 34 ft | 0 kts | 322° |
| 2026-04-24 23:15 | 32.72626 | -117.18147 | 35 ft | 1 kts | 295° |
| 2026-04-24 23:16 | 32.72625 | -117.18147 | 47 ft | 1 kts | 295° |
| 2026-04-24 23:16 | 32.72624 | -117.18146 | 161 ft | 0 kts | 295° |
| 2026-04-24 23:16 | 32.72624 | -117.18145 | 195 ft | 1 kts | 277° |
| 2026-04-24 23:16 | 32.72555 | -117.18261 | 181 ft | 32 kts | 266° |
| 2026-04-24 23:17 | 32.72404 | -117.18670 | 195 ft | 79 kts | 264° |
| 2026-04-24 23:17 | 32.72290 | -117.19469 | 173 ft | 114 kts | 261° |
| 2026-04-24 23:17 | 32.72037 | -117.20478 | 169 ft | 138 kts | 251° |
| 2026-04-24 23:17 | 32.71548 | -117.21509 | 182 ft | 148 kts | 236° |
| 2026-04-24 23:18 | 32.70790 | -117.22349 | 192 ft | 151 kts | 216° |
| 2026-04-24 23:18 | 32.69825 | -117.22783 | 197 ft | 148 kts | 199° |
| 2026-04-24 23:18 | 32.68825 | -117.23030 | 200 ft | 146 kts | 195° |
| 2026-04-24 23:18 | 32.67833 | -117.23255 | 198 ft | 146 kts | 191° |
| 2026-04-24 23:19 | 32.66813 | -117.23339 | 172 ft | 145 kts | 206° |
| 2026-04-24 23:19 | 32.66363 | -117.24114 | 218 ft | 106 kts | 300° |
| 2026-04-24 23:19 | 32.66885 | -117.24543 | 199 ft | 93 kts | 349° |
| 2026-04-24 23:19 | 32.67495 | -117.24698 | 193 ft | 86 kts | 341° |
| 2026-04-24 23:20 | 32.68048 | -117.24902 | 191 ft | 82 kts | 336° |
| 2026-04-24 23:20 | 32.68619 | -117.25094 | 187 ft | 87 kts | 335° |
| 2026-04-24 23:20 | 32.68954 | -117.25569 | 185 ft | 71 kts | 282° |
| 2026-04-24 23:20 | 32.68608 | -117.25947 | 186 ft | 86 kts | 195° |
| 2026-04-24 23:21 | 32.68191 | -117.25439 | 183 ft | 102 kts | 108° |
| 2026-04-24 23:21 | 32.68569 | -117.25058 | 193 ft | 66 kts | 356° |
| 2026-04-24 23:21 | 32.68790 | -117.25250 | 92 ft | 24 kts | 165° |
| 2026-04-24 23:21 | 32.68752 | -117.25290 | 196 ft | 26 kts | 115° |
| 2026-04-24 23:22 | 32.69129 | -117.25221 | 242 ft | 66 kts | 333° |
| 2026-04-24 23:22 | 32.69543 | -117.25472 | 207 ft | 59 kts | 320° |
| 2026-04-24 23:22 | 32.69667 | -117.25809 | 201 ft | 39 kts | 1° |
| 2026-04-24 23:22 | 32.70035 | -117.25855 | 176 ft | 75 kts | 8° |
| 2026-04-24 23:23 | 32.70703 | -117.25797 | 184 ft | 112 kts | 9° |
| 2026-04-24 23:23 | 32.71557 | -117.25872 | 179 ft | 133 kts | 357° |
| 2026-04-24 23:23 | 32.72502 | -117.25845 | 193 ft | 137 kts | 5° |
| 2026-04-24 23:23 | 32.73483 | -117.25650 | 177 ft | 148 kts | 16° |
| 2026-04-24 23:24 | 32.74523 | -117.25531 | 111 ft | 153 kts | 10° |
| 2026-04-24 23:24 | 32.75510 | -117.25310 | 235 ft | 140 kts | 354° |
| 2026-04-24 23:24 | 32.76510 | -117.25343 | 201 ft | 148 kts | 355° |
| 2026-04-24 23:24 | 32.77543 | -117.25371 | 196 ft | 148 kts | 355° |
| 2026-04-24 23:25 | 32.78517 | -117.25474 | 212 ft | 131 kts | 348° |
| 2026-04-24 23:25 | 32.79335 | -117.25678 | 211 ft | 109 kts | 341° |
| 2026-04-24 23:25 | 32.79986 | -117.25963 | 232 ft | 81 kts | 329° |
| 2026-04-24 23:25 | 32.80385 | -117.26132 | 180 ft | 65 kts | 328° |
| 2026-04-24 23:26 | 32.80665 | -117.26811 | 170 ft | 119 kts | 274° |
| 2026-04-24 23:26 | 32.80395 | -117.27922 | 184 ft | 157 kts | 249° |
| 2026-04-24 23:26 | 32.79893 | -117.29165 | 183 ft | 175 kts | 244° |
| 2026-04-24 23:26 | 32.79323 | -117.30451 | 222 ft | 170 kts | 239° |
| 2026-04-24 23:27 | 32.78516 | -117.31355 | 217 ft | 153 kts | 213° |
| 2026-04-24 23:27 | 32.77596 | -117.31903 | 204 ft | 144 kts | 207° |
| 2026-04-24 23:27 | 32.76742 | -117.32047 | 236 ft | 91 kts | 103° |
| 2026-04-24 23:27 | 32.76586 | -117.31928 | 141 ft | 17 kts | 48° |
| 2026-04-24 23:28 | 32.76798 | -117.31837 | 181 ft | 55 kts | 32° |
| 2026-04-24 23:28 | 32.77397 | -117.31869 | 190 ft | 107 kts | 333° |
| 2026-04-24 23:28 | 32.78204 | -117.32298 | 174 ft | 146 kts | 338° |
| 2026-04-24 23:28 | 32.79235 | -117.32512 | 205 ft | 138 kts | 359° |
| 2026-04-24 23:29 | 32.80087 | -117.32441 | 209 ft | 109 kts | 3° |
| 2026-04-24 23:29 | 32.80768 | -117.32409 | 211 ft | 84 kts | 355° |
| 2026-04-24 23:29 | 32.81344 | -117.32343 | 187 ft | 86 kts | 14° |
| 2026-04-24 23:29 | 32.81815 | -117.31931 | 208 ft | 73 kts | 118° |
| 2026-04-24 23:30 | 32.82127 | -117.31538 | 158 ft | 79 kts | 109° |
| 2026-04-24 23:30 | 32.82592 | -117.31643 | 165 ft | 72 kts | 99° |
| 2026-04-24 23:30 | 32.82895 | -117.32209 | 16 ft | 83 kts | 6° |
| 2026-04-24 23:30 | 32.83355 | -117.32593 | 756 ft | 89 kts | 339° |
| 2026-04-24 23:31 | 32.83701 | -117.32677 | 751 ft | 11 kts | 351° |
| 2026-04-24 23:31 | 32.83708 | -117.32679 | 676 ft | 1 kts | 346° |
| 2026-04-24 23:31 | 32.83710 | -117.32679 | 612 ft | 1 kts | 345° |
| 2026-04-24 23:31 | 32.83860 | -117.32456 | 551 ft | 97 kts | 39° |
| 2026-04-24 23:32 | 32.84219 | -117.31418 | 590 ft | 160 kts | 85° |
| 2026-04-24 23:32 | 32.84386 | -117.30063 | 91 ft | 167 kts | 95° |
| 2026-04-24 23:32 | 32.84264 | -117.28821 | 248 ft | 138 kts | 125° |
| 2026-04-24 23:32 | 32.83790 | -117.28062 | 310 ft | 89 kts | 206° |
| 2026-04-24 23:33 | 32.83432 | -117.28229 | 185 ft | 56 kts | 261° |
| 2026-04-24 23:33 | 32.83241 | -117.28458 | 158 ft | 72 kts | 242° |
| 2026-04-24 23:33 | 32.82344 | -117.28259 | 175 ft | 122 kts | 152° |
| 2026-04-24 23:33 | 32.81610 | -117.27558 | 165 ft | 144 kts | 144° |
| 2026-04-24 23:34 | 32.80806 | -117.26761 | 179 ft | 160 kts | 140° |
| 2026-04-24 23:34 | 32.79932 | -117.25890 | 164 ft | 170 kts | 165° |
| 2026-04-24 23:34 | 32.78764 | -117.25528 | 181 ft | 178 kts | 178° |
| 2026-04-24 23:34 | 32.77577 | -117.25450 | 203 ft | 148 kts | 185° |
| 2026-04-24 23:35 | 32.76630 | -117.25397 | 170 ft | 132 kts | 185° |
| 2026-04-24 23:35 | 32.75719 | -117.25388 | 171 ft | 131 kts | 186° |
| 2026-04-24 23:35 | 32.74772 | -117.25468 | 205 ft | 141 kts | 192° |
| 2026-04-24 23:35 | 32.73799 | -117.25598 | 168 ft | 133 kts | 192° |
| 2026-04-24 23:36 | 32.72882 | -117.25742 | 173 ft | 139 kts | 193° |
| 2026-04-24 23:36 | 32.71869 | -117.25744 | 159 ft | 153 kts | 182° |
| 2026-04-24 23:36 | 32.70786 | -117.25655 | 172 ft | 158 kts | 181° |
| 2026-04-24 23:36 | 32.69677 | -117.25474 | 178 ft | 164 kts | 173° |
| 2026-04-24 23:37 | 32.68555 | -117.25087 | 177 ft | 170 kts | 167° |
| 2026-04-24 23:37 | 32.67564 | -117.24736 | 185 ft | 130 kts | 169° |
| 2026-04-24 23:37 | 32.66514 | -117.23576 | 189 ft | 100 kts | 46° |
| 2026-04-24 23:38 | 32.67158 | -117.23256 | 154 ft | 122 kts | 9° |
| 2026-04-24 23:38 | 32.68099 | -117.23090 | 148 ft | 149 kts | 4° |
| 2026-04-24 23:38 | 32.69157 | -117.22964 | 163 ft | 156 kts | 4° |
| 2026-04-24 23:38 | 32.70235 | -117.22654 | 124 ft | 164 kts | 23° |
| 2026-04-24 23:39 | 32.71101 | -117.21792 | 137 ft | 164 kts | 52° |
| 2026-04-24 23:39 | 32.71625 | -117.20617 | 228 ft | 156 kts | 70° |
| 2026-04-24 23:39 | 32.72034 | -117.19470 | 162 ft | 145 kts | 70° |
| 2026-04-24 23:39 | 32.72354 | -117.18348 | 138 ft | 140 kts | 60° |
| 2026-04-24 23:40 | 32.72634 | -117.18135 | 293 ft | 10 kts | 312° |
| 2026-04-24 23:40 | 32.72629 | -117.18120 | 231 ft | 4 kts | 310° |
| 2026-04-24 23:40 | 32.72628 | -117.18115 | 122 ft | 1 kts | 307° |
| 2026-04-24 23:40 | 32.72638 | -117.18118 | 28 ft | 0 kts | 303° |
| 2026-04-24 23:41 | 32.72637 | -117.18118 | 15 ft | 0 kts | 303° |
| 2026-04-24 23:41 | 32.72639 | -117.18124 | 12 ft | 0 kts | 304° |